sensor_id;sensor_type;location;lat;lon;timestamp;P1;durP1;ratioP1;P2;durP2;ratioP2
23242;SDS011;11790;49.578;11.214;2023-11-19T00:03:10;4.63;;;3.47;;
23242;SDS011;11790;49.578;11.214;2023-11-19T00:08:13;6.32;;;3.10;;
23242;SDS011;11790;49.578;11.214;2023-11-19T00:13:13;4.20;;;3.33;;
23242;SDS011;11790;49.578;11.214;2023-11-19T00:18:13;5.53;;;3.70;;
23242;SDS011;11790;49.578;11.214;2023-11-19T00:23:15;4.47;;;3.20;;
23242;SDS011;11790;49.578;11.214;2023-11-19T00:28:15;4.78;;;3.50;;
23242;SDS011;11790;49.578;11.214;2023-11-19T00:33:16;5.05;;;3.75;;
23242;SDS011;11790;49.578;11.214;2023-11-19T00:38:17;3.58;;;3.17;;
23242;SDS011;11790;49.578;11.214;2023-11-19T00:43:17;4.60;;;3.57;;
23242;SDS011;11790;49.578;11.214;2023-11-19T00:48:18;4.93;;;3.63;;
23242;SDS011;11790;49.578;11.214;2023-11-19T00:53:19;4.60;;;2.95;;
23242;SDS011;11790;49.578;11.214;2023-11-19T00:58:19;3.72;;;3.15;;
23242;SDS011;11790;49.578;11.214;2023-11-19T01:03:19;4.03;;;3.10;;
23242;SDS011;11790;49.578;11.214;2023-11-19T01:08:19;4.65;;;2.88;;
23242;SDS011;11790;49.578;11.214;2023-11-19T01:13:19;3.65;;;2.90;;
23242;SDS011;11790;49.578;11.214;2023-11-19T01:18:20;3.42;;;2.60;;
23242;SDS011;11790;49.578;11.214;2023-11-19T01:23:20;3.20;;;2.88;;
23242;SDS011;11790;49.578;11.214;2023-11-19T01:28:20;5.05;;;2.80;;
23242;SDS011;11790;49.578;11.214;2023-11-19T01:33:22;3.70;;;2.78;;
23242;SDS011;11790;49.578;11.214;2023-11-19T01:38:22;3.10;;;2.72;;
23242;SDS011;11790;49.578;11.214;2023-11-19T01:43:35;4.07;;;2.92;;
23242;SDS011;11790;49.578;11.214;2023-11-19T01:48:36;4.25;;;2.83;;
23242;SDS011;11790;49.578;11.214;2023-11-19T01:53:37;3.95;;;3.20;;
23242;SDS011;11790;49.578;11.214;2023-11-19T01:58:39;4.80;;;3.72;;
23242;SDS011;11790;49.578;11.214;2023-11-19T02:03:40;4.30;;;3.17;;
23242;SDS011;11790;49.578;11.214;2023-11-19T02:08:40;3.60;;;3.05;;
23242;SDS011;11790;49.578;11.214;2023-11-19T02:13:41;3.92;;;3.00;;
23242;SDS011;11790;49.578;11.214;2023-11-19T02:18:41;2.93;;;2.63;;
23242;SDS011;11790;49.578;11.214;2023-11-19T02:23:42;5.13;;;3.20;;
23242;SDS011;11790;49.578;11.214;2023-11-19T02:28:43;4.13;;;3.10;;
23242;SDS011;11790;49.578;11.214;2023-11-19T02:33:43;4.15;;;2.85;;
23242;SDS011;11790;49.578;11.214;2023-11-19T02:38:43;3.70;;;2.70;;
23242;SDS011;11790;49.578;11.214;2023-11-19T02:43:44;5.25;;;2.80;;
23242;SDS011;11790;49.578;11.214;2023-11-19T02:48:44;3.42;;;3.10;;
23242;SDS011;11790;49.578;11.214;2023-11-19T02:53:45;3.97;;;2.83;;
23242;SDS011;11790;49.578;11.214;2023-11-19T02:58:48;7.55;;;2.80;;
23242;SDS011;11790;49.578;11.214;2023-11-19T03:03:49;3.20;;;2.63;;
23242;SDS011;11790;49.578;11.214;2023-11-19T03:08:54;3.38;;;2.40;;
23242;SDS011;11790;49.578;11.214;2023-11-19T03:13:54;3.45;;;2.85;;
23242;SDS011;11790;49.578;11.214;2023-11-19T03:18:55;3.50;;;2.58;;
23242;SDS011;11790;49.578;11.214;2023-11-19T03:23:55;3.70;;;2.72;;
23242;SDS011;11790;49.578;11.214;2023-11-19T03:28:55;3.28;;;2.67;;
23242;SDS011;11790;49.578;11.214;2023-11-19T03:33:57;6.03;;;2.40;;
23242;SDS011;11790;49.578;11.214;2023-11-19T03:38:57;4.25;;;2.40;;
23242;SDS011;11790;49.578;11.214;2023-11-19T03:43:57;3.33;;;2.97;;
23242;SDS011;11790;49.578;11.214;2023-11-19T03:48:57;3.80;;;3.28;;
23242;SDS011;11790;49.578;11.214;2023-11-19T03:53:57;4.23;;;3.17;;
23242;SDS011;11790;49.578;11.214;2023-11-19T03:58:59;3.97;;;3.22;;
23242;SDS011;11790;49.578;11.214;2023-11-19T04:03:59;4.03;;;3.38;;
23242;SDS011;11790;49.578;11.214;2023-11-19T04:08:59;4.80;;;3.53;;
23242;SDS011;11790;49.578;11.214;2023-11-19T04:13:59;5.05;;;3.72;;
23242;SDS011;11790;49.578;11.214;2023-11-19T04:18:59;5.45;;;4.22;;
23242;SDS011;11790;49.578;11.214;2023-11-19T04:24:00;4.45;;;3.63;;
23242;SDS011;11790;49.578;11.214;2023-11-19T04:29:00;5.45;;;4.30;;
23242;SDS011;11790;49.578;11.214;2023-11-19T04:34:00;6.22;;;4.10;;
23242;SDS011;11790;49.578;11.214;2023-11-19T04:39:19;6.75;;;4.35;;
23242;SDS011;11790;49.578;11.214;2023-11-19T04:44:19;6.28;;;4.78;;
23242;SDS011;11790;49.578;11.214;2023-11-19T04:49:20;6.97;;;5.30;;
23242;SDS011;11790;49.578;11.214;2023-11-19T04:54:20;8.35;;;5.15;;
23242;SDS011;11790;49.578;11.214;2023-11-19T04:59:20;8.55;;;5.20;;
23242;SDS011;11790;49.578;11.214;2023-11-19T05:04:21;6.88;;;5.55;;
23242;SDS011;11790;49.578;11.214;2023-11-19T05:09:21;7.90;;;6.07;;
23242;SDS011;11790;49.578;11.214;2023-11-19T05:14:21;9.85;;;6.78;;
23242;SDS011;11790;49.578;11.214;2023-11-19T05:19:21;8.27;;;5.68;;
23242;SDS011;11790;49.578;11.214;2023-11-19T05:24:22;11.05;;;6.60;;
23242;SDS011;11790;49.578;11.214;2023-11-19T05:29:22;8.80;;;6.28;;
23242;SDS011;11790;49.578;11.214;2023-11-19T05:34:23;9.63;;;7.05;;
23242;SDS011;11790;49.578;11.214;2023-11-19T05:39:23;9.60;;;6.70;;
23242;SDS011;11790;49.578;11.214;2023-11-19T05:44:24;13.23;;;7.20;;
23242;SDS011;11790;49.578;11.214;2023-11-19T05:49:24;10.60;;;6.95;;
23242;SDS011;11790;49.578;11.214;2023-11-19T05:54:24;9.43;;;6.30;;
23242;SDS011;11790;49.578;11.214;2023-11-19T05:59:25;8.93;;;5.65;;
23242;SDS011;11790;49.578;11.214;2023-11-19T06:04:26;8.57;;;5.88;;
23242;SDS011;11790;49.578;11.214;2023-11-19T06:09:26;11.40;;;6.57;;
23242;SDS011;11790;49.578;11.214;2023-11-19T06:14:27;9.15;;;6.03;;
23242;SDS011;11790;49.578;11.214;2023-11-19T06:19:27;10.38;;;6.80;;
23242;SDS011;11790;49.578;11.214;2023-11-19T06:24:28;9.40;;;6.40;;
23242;SDS011;11790;49.578;11.214;2023-11-19T06:29:28;8.10;;;6.30;;
23242;SDS011;11790;49.578;11.214;2023-11-19T06:34:28;10.15;;;5.75;;
23242;SDS011;11790;49.578;11.214;2023-11-19T06:39:28;7.60;;;5.53;;
23242;SDS011;11790;49.578;11.214;2023-11-19T06:44:29;10.30;;;6.30;;
23242;SDS011;11790;49.578;11.214;2023-11-19T06:49:29;8.90;;;5.82;;
23242;SDS011;11790;49.578;11.214;2023-11-19T06:54:29;8.00;;;5.43;;
23242;SDS011;11790;49.578;11.214;2023-11-19T06:59:29;7.70;;;5.68;;
23242;SDS011;11790;49.578;11.214;2023-11-19T07:04:29;8.88;;;5.93;;
23242;SDS011;11790;49.578;11.214;2023-11-19T07:09:30;8.63;;;5.93;;
23242;SDS011;11790;49.578;11.214;2023-11-19T07:14:30;11.00;;;6.40;;
23242;SDS011;11790;49.578;11.214;2023-11-19T07:19:30;13.75;;;6.75;;
23242;SDS011;11790;49.578;11.214;2023-11-19T07:24:30;9.70;;;5.78;;
23242;SDS011;11790;49.578;11.214;2023-11-19T07:29:31;11.55;;;6.45;;
23242;SDS011;11790;49.578;11.214;2023-11-19T07:34:31;10.55;;;5.80;;
23242;SDS011;11790;49.578;11.214;2023-11-19T07:39:31;13.10;;;7.65;;
23242;SDS011;11790;49.578;11.214;2023-11-19T07:44:32;11.77;;;7.55;;
23242;SDS011;11790;49.578;11.214;2023-11-19T07:49:32;7.93;;;5.75;;
23242;SDS011;11790;49.578;11.214;2023-11-19T07:54:33;8.70;;;6.18;;
23242;SDS011;11790;49.578;11.214;2023-11-19T07:59:33;9.85;;;6.70;;
23242;SDS011;11790;49.578;11.214;2023-11-19T08:04:34;7.82;;;5.57;;
23242;SDS011;11790;49.578;11.214;2023-11-19T08:09:34;9.25;;;6.25;;
23242;SDS011;11790;49.578;11.214;2023-11-19T08:14:35;8.48;;;5.25;;
23242;SDS011;11790;49.578;11.214;2023-11-19T08:25:10;20.27;;;11.40;;
23242;SDS011;11790;49.578;11.214;2023-11-19T08:30:10;21.88;;;9.00;;
23242;SDS011;11790;49.578;11.214;2023-11-19T08:35:10;20.35;;;11.18;;
23242;SDS011;11790;49.578;11.214;2023-11-19T08:40:11;14.73;;;10.05;;
23242;SDS011;11790;49.578;11.214;2023-11-19T08:45:12;17.38;;;11.57;;
23242;SDS011;11790;49.578;11.214;2023-11-19T08:50:12;17.02;;;10.80;;
23242;SDS011;11790;49.578;11.214;2023-11-19T08:55:12;7.32;;;4.85;;
23242;SDS011;11790;49.578;11.214;2023-11-19T09:00:13;4.30;;;3.05;;
23242;SDS011;11790;49.578;11.214;2023-11-19T09:05:16;4.18;;;2.88;;
23242;SDS011;11790;49.578;11.214;2023-11-19T09:10:16;3.78;;;3.00;;
23242;SDS011;11790;49.578;11.214;2023-11-19T09:15:17;4.88;;;3.45;;
23242;SDS011;11790;49.578;11.214;2023-11-19T09:20:17;4.43;;;2.63;;
23242;SDS011;11790;49.578;11.214;2023-11-19T09:25:17;7.20;;;2.63;;
23242;SDS011;11790;49.578;11.214;2023-11-19T09:30:17;3.30;;;2.10;;
23242;SDS011;11790;49.578;11.214;2023-11-19T09:35:17;2.53;;;1.58;;
23242;SDS011;11790;49.578;11.214;2023-11-19T09:40:18;5.30;;;1.92;;
23242;SDS011;11790;49.578;11.214;2023-11-19T09:45:18;2.17;;;1.60;;
23242;SDS011;11790;49.578;11.214;2023-11-19T09:50:20;2.97;;;1.80;;
23242;SDS011;11790;49.578;11.214;2023-11-19T09:55:20;1.98;;;1.30;;
23242;SDS011;11790;49.578;11.214;2023-11-19T10:00:21;2.45;;;1.42;;
23242;SDS011;11790;49.578;11.214;2023-11-19T10:05:21;2.38;;;1.40;;
23242;SDS011;11790;49.578;11.214;2023-11-19T10:10:22;2.90;;;1.67;;
23242;SDS011;11790;49.578;11.214;2023-11-19T10:15:23;3.90;;;1.40;;
23242;SDS011;11790;49.578;11.214;2023-11-19T10:20:24;3.30;;;1.30;;
23242;SDS011;11790;49.578;11.214;2023-11-19T10:25:25;5.13;;;1.40;;
23242;SDS011;11790;49.578;11.214;2023-11-19T10:30:26;2.30;;;1.10;;
23242;SDS011;11790;49.578;11.214;2023-11-19T10:35:28;3.13;;;1.00;;
23242;SDS011;11790;49.578;11.214;2023-11-19T10:40:37;4.78;;;1.45;;
23242;SDS011;11790;49.578;11.214;2023-11-19T10:45:38;3.20;;;1.10;;
23242;SDS011;11790;49.578;11.214;2023-11-19T10:50:40;2.45;;;1.17;;
23242;SDS011;11790;49.578;11.214;2023-11-19T10:55:40;3.28;;;1.23;;
23242;SDS011;11790;49.578;11.214;2023-11-19T11:00:44;3.75;;;1.10;;
23242;SDS011;11790;49.578;11.214;2023-11-19T11:05:48;4.70;;;1.30;;
23242;SDS011;11790;49.578;11.214;2023-11-19T11:10:52;2.85;;;1.23;;
23242;SDS011;11790;49.578;11.214;2023-11-19T11:15:53;3.65;;;1.33;;
23242;SDS011;11790;49.578;11.214;2023-11-19T11:21:06;1.38;;;0.90;;
23242;SDS011;11790;49.578;11.214;2023-11-19T11:36:19;1.90;;;0.90;;
23242;SDS011;11790;49.578;11.214;2023-11-19T11:41:21;4.63;;;1.15;;
23242;SDS011;11790;49.578;11.214;2023-11-19T11:57:00;4.75;;;1.40;;
23242;SDS011;11790;49.578;11.214;2023-11-19T12:02:01;2.83;;;1.00;;
23242;SDS011;11790;49.578;11.214;2023-11-19T12:12:28;1.88;;;1.05;;
23242;SDS011;11790;49.578;11.214;2023-11-19T12:22:36;4.45;;;1.00;;
23242;SDS011;11790;49.578;11.214;2023-11-19T12:27:39;3.95;;;1.30;;
23242;SDS011;11790;49.578;11.214;2023-11-19T12:49:01;2.58;;;1.10;;
23242;SDS011;11790;49.578;11.214;2023-11-19T12:54:01;4.32;;;1.20;;
23242;SDS011;11790;49.578;11.214;2023-11-19T13:04:49;2.22;;;1.27;;
23242;SDS011;11790;49.578;11.214;2023-11-19T13:09:49;4.85;;;1.23;;
23242;SDS011;11790;49.578;11.214;2023-11-19T13:20:28;2.45;;;1.00;;
23242;SDS011;11790;49.578;11.214;2023-11-19T13:25:28;3.05;;;1.23;;
23242;SDS011;11790;49.578;11.214;2023-11-19T13:30:29;2.08;;;1.35;;
23242;SDS011;11790;49.578;11.214;2023-11-19T13:35:31;3.28;;;1.45;;
23242;SDS011;11790;49.578;11.214;2023-11-19T13:40:32;7.13;;;1.73;;
23242;SDS011;11790;49.578;11.214;2023-11-19T13:45:32;3.83;;;1.70;;
23242;SDS011;11790;49.578;11.214;2023-11-19T13:50:32;4.10;;;1.70;;
23242;SDS011;11790;49.578;11.214;2023-11-19T13:55:34;4.72;;;1.85;;
23242;SDS011;11790;49.578;11.214;2023-11-19T14:00:34;6.45;;;1.50;;
23242;SDS011;11790;49.578;11.214;2023-11-19T14:05:34;6.22;;;1.70;;
23242;SDS011;11790;49.578;11.214;2023-11-19T14:10:34;4.55;;;1.38;;
23242;SDS011;11790;49.578;11.214;2023-11-19T14:15:36;8.65;;;1.63;;
23242;SDS011;11790;49.578;11.214;2023-11-19T14:20:36;3.92;;;1.40;;
23242;SDS011;11790;49.578;11.214;2023-11-19T14:25:37;4.75;;;1.75;;
23242;SDS011;11790;49.578;11.214;2023-11-19T14:30:38;4.03;;;1.50;;
23242;SDS011;11790;49.578;11.214;2023-11-19T14:35:38;3.40;;;1.43;;
23242;SDS011;11790;49.578;11.214;2023-11-19T14:40:38;4.73;;;1.70;;
23242;SDS011;11790;49.578;11.214;2023-11-19T14:45:38;6.22;;;1.50;;
23242;SDS011;11790;49.578;11.214;2023-11-19T14:50:39;3.95;;;1.45;;
23242;SDS011;11790;49.578;11.214;2023-11-19T14:55:39;2.47;;;1.70;;
23242;SDS011;11790;49.578;11.214;2023-11-19T15:00:40;3.78;;;1.63;;
23242;SDS011;11790;49.578;11.214;2023-11-19T15:05:40;4.60;;;1.65;;
23242;SDS011;11790;49.578;11.214;2023-11-19T15:10:41;12.65;;;1.80;;
23242;SDS011;11790;49.578;11.214;2023-11-19T15:15:41;8.05;;;3.00;;
23242;SDS011;11790;49.578;11.214;2023-11-19T15:20:42;6.78;;;3.20;;
23242;SDS011;11790;49.578;11.214;2023-11-19T15:25:42;4.95;;;2.80;;
23242;SDS011;11790;49.578;11.214;2023-11-19T15:30:42;5.28;;;2.78;;
23242;SDS011;11790;49.578;11.214;2023-11-19T15:35:43;3.92;;;2.40;;
23242;SDS011;11790;49.578;11.214;2023-11-19T15:40:43;6.82;;;2.60;;
23242;SDS011;11790;49.578;11.214;2023-11-19T15:45:44;5.93;;;3.40;;
23242;SDS011;11790;49.578;11.214;2023-11-19T15:50:44;8.05;;;2.55;;
23242;SDS011;11790;49.578;11.214;2023-11-19T16:01:13;7.88;;;2.70;;
23242;SDS011;11790;49.578;11.214;2023-11-19T16:06:13;6.55;;;2.58;;
23242;SDS011;11790;49.578;11.214;2023-11-19T16:11:13;9.50;;;2.85;;
23242;SDS011;11790;49.578;11.214;2023-11-19T16:16:13;6.57;;;2.92;;
23242;SDS011;11790;49.578;11.214;2023-11-19T16:21:13;4.53;;;2.70;;
23242;SDS011;11790;49.578;11.214;2023-11-19T16:26:14;7.30;;;3.13;;
23242;SDS011;11790;49.578;11.214;2023-11-19T16:31:15;7.30;;;2.50;;
23242;SDS011;11790;49.578;11.214;2023-11-19T16:36:15;9.25;;;3.13;;
23242;SDS011;11790;49.578;11.214;2023-11-19T16:41:18;7.22;;;2.50;;
23242;SDS011;11790;49.578;11.214;2023-11-19T16:46:22;6.28;;;2.47;;
23242;SDS011;11790;49.578;11.214;2023-11-19T16:51:23;7.45;;;2.78;;
23242;SDS011;11790;49.578;11.214;2023-11-19T16:56:23;7.75;;;3.50;;
23242;SDS011;11790;49.578;11.214;2023-11-19T17:01:23;8.07;;;4.57;;
23242;SDS011;11790;49.578;11.214;2023-11-19T17:06:23;8.65;;;4.93;;
23242;SDS011;11790;49.578;11.214;2023-11-19T17:11:24;11.23;;;5.70;;
23242;SDS011;11790;49.578;11.214;2023-11-19T17:16:24;9.13;;;4.77;;
23242;SDS011;11790;49.578;11.214;2023-11-19T17:21:24;17.47;;;8.43;;
23242;SDS011;11790;49.578;11.214;2023-11-19T17:26:24;17.40;;;9.02;;
23242;SDS011;11790;49.578;11.214;2023-11-19T17:31:25;13.80;;;8.15;;
23242;SDS011;11790;49.578;11.214;2023-11-19T17:36:25;16.60;;;6.78;;
23242;SDS011;11790;49.578;11.214;2023-11-19T17:41:25;10.15;;;5.35;;
23242;SDS011;11790;49.578;11.214;2023-11-19T17:46:27;12.27;;;5.07;;
23242;SDS011;11790;49.578;11.214;2023-11-19T17:51:27;10.67;;;3.93;;
23242;SDS011;11790;49.578;11.214;2023-11-19T17:56:27;17.10;;;4.72;;
23242;SDS011;11790;49.578;11.214;2023-11-19T18:01:28;16.58;;;5.88;;
23242;SDS011;11790;49.578;11.214;2023-11-19T18:06:28;14.32;;;4.70;;
23242;SDS011;11790;49.578;11.214;2023-11-19T18:11:28;15.25;;;4.85;;
23242;SDS011;11790;49.578;11.214;2023-11-19T18:16:28;7.20;;;3.10;;
23242;SDS011;11790;49.578;11.214;2023-11-19T18:21:28;9.30;;;3.17;;
23242;SDS011;11790;49.578;11.214;2023-11-19T18:26:29;5.35;;;2.88;;
23242;SDS011;11790;49.578;11.214;2023-11-19T18:31:29;6.00;;;2.75;;
23242;SDS011;11790;49.578;11.214;2023-11-19T18:36:35;13.30;;;4.60;;
23242;SDS011;11790;49.578;11.214;2023-11-19T18:41:36;13.40;;;5.80;;
23242;SDS011;11790;49.578;11.214;2023-11-19T18:46:37;9.27;;;4.45;;
23242;SDS011;11790;49.578;11.214;2023-11-19T18:51:37;9.15;;;5.10;;
23242;SDS011;11790;49.578;11.214;2023-11-19T18:56:37;8.55;;;3.65;;
23242;SDS011;11790;49.578;11.214;2023-11-19T19:01:38;10.40;;;3.25;;
23242;SDS011;11790;49.578;11.214;2023-11-19T19:06:38;8.95;;;3.20;;
23242;SDS011;11790;49.578;11.214;2023-11-19T19:11:38;12.05;;;3.67;;
23242;SDS011;11790;49.578;11.214;2023-11-19T19:16:39;10.85;;;3.10;;
23242;SDS011;11790;49.578;11.214;2023-11-19T19:21:42;10.50;;;3.60;;
23242;SDS011;11790;49.578;11.214;2023-11-19T19:26:42;11.95;;;3.55;;
23242;SDS011;11790;49.578;11.214;2023-11-19T19:31:42;5.38;;;2.70;;
23242;SDS011;11790;49.578;11.214;2023-11-19T19:36:43;5.82;;;2.05;;
23242;SDS011;11790;49.578;11.214;2023-11-19T19:41:43;6.50;;;1.95;;
23242;SDS011;11790;49.578;11.214;2023-11-19T19:46:44;12.07;;;3.63;;
23242;SDS011;11790;49.578;11.214;2023-11-19T19:51:45;20.20;;;7.53;;
23242;SDS011;11790;49.578;11.214;2023-11-19T19:56:46;11.88;;;5.25;;
23242;SDS011;11790;49.578;11.214;2023-11-19T20:07:18;21.20;;;8.00;;
23242;SDS011;11790;49.578;11.214;2023-11-19T20:12:18;10.45;;;3.78;;
23242;SDS011;11790;49.578;11.214;2023-11-19T20:17:18;9.13;;;2.58;;
23242;SDS011;11790;49.578;11.214;2023-11-19T20:22:19;6.88;;;2.30;;
23242;SDS011;11790;49.578;11.214;2023-11-19T20:27:19;7.65;;;2.10;;
23242;SDS011;11790;49.578;11.214;2023-11-19T20:32:20;4.93;;;1.83;;
23242;SDS011;11790;49.578;11.214;2023-11-19T20:37:21;9.35;;;1.92;;
23242;SDS011;11790;49.578;11.214;2023-11-19T20:42:21;7.70;;;2.10;;
23242;SDS011;11790;49.578;11.214;2023-11-19T20:47:21;11.63;;;2.20;;
23242;SDS011;11790;49.578;11.214;2023-11-19T20:52:21;13.23;;;2.45;;
23242;SDS011;11790;49.578;11.214;2023-11-19T21:02:32;8.85;;;2.28;;
23242;SDS011;11790;49.578;11.214;2023-11-19T21:07:32;8.90;;;2.13;;
23242;SDS011;11790;49.578;11.214;2023-11-19T21:12:33;10.38;;;2.10;;
23242;SDS011;11790;49.578;11.214;2023-11-19T21:17:33;8.70;;;2.28;;
23242;SDS011;11790;49.578;11.214;2023-11-19T21:22:33;12.95;;;2.60;;
23242;SDS011;11790;49.578;11.214;2023-11-19T21:27:34;16.83;;;2.75;;
23242;SDS011;11790;49.578;11.214;2023-11-19T21:32:34;15.55;;;2.47;;
23242;SDS011;11790;49.578;11.214;2023-11-19T21:37:34;11.30;;;2.50;;
23242;SDS011;11790;49.578;11.214;2023-11-19T21:42:34;17.30;;;2.70;;
23242;SDS011;11790;49.578;11.214;2023-11-19T21:47:35;9.70;;;2.10;;
23242;SDS011;11790;49.578;11.214;2023-11-19T21:52:35;9.30;;;2.22;;
23242;SDS011;11790;49.578;11.214;2023-11-19T21:57:35;7.60;;;2.05;;
23242;SDS011;11790;49.578;11.214;2023-11-19T22:02:37;17.52;;;2.60;;
23242;SDS011;11790;49.578;11.214;2023-11-19T22:07:37;10.32;;;2.35;;
23242;SDS011;11790;49.578;11.214;2023-11-19T22:12:38;14.57;;;2.60;;
23242;SDS011;11790;49.578;11.214;2023-11-19T22:17:40;13.68;;;2.35;;
23242;SDS011;11790;49.578;11.214;2023-11-19T22:22:40;8.05;;;1.77;;
23242;SDS011;11790;49.578;11.214;2023-11-19T22:27:41;13.75;;;2.60;;
23242;SDS011;11790;49.578;11.214;2023-11-19T22:32:41;7.30;;;2.10;;
23242;SDS011;11790;49.578;11.214;2023-11-19T22:37:41;11.98;;;2.20;;
23242;SDS011;11790;49.578;11.214;2023-11-19T22:42:41;14.25;;;2.00;;
23242;SDS011;11790;49.578;11.214;2023-11-19T22:47:42;10.05;;;2.20;;
23242;SDS011;11790;49.578;11.214;2023-11-19T22:52:42;18.02;;;3.15;;
23242;SDS011;11790;49.578;11.214;2023-11-19T22:57:43;11.48;;;2.67;;
23242;SDS011;11790;49.578;11.214;2023-11-19T23:02:43;13.00;;;2.22;;
23242;SDS011;11790;49.578;11.214;2023-11-19T23:07:44;10.32;;;2.00;;
23242;SDS011;11790;49.578;11.214;2023-11-19T23:12:44;11.90;;;2.08;;
23242;SDS011;11790;49.578;11.214;2023-11-19T23:17:45;9.77;;;2.00;;
23242;SDS011;11790;49.578;11.214;2023-11-19T23:22:45;15.83;;;2.13;;
23242;SDS011;11790;49.578;11.214;2023-11-19T23:27:46;10.75;;;2.20;;
23242;SDS011;11790;49.578;11.214;2023-11-19T23:32:47;18.65;;;2.63;;
23242;SDS011;11790;49.578;11.214;2023-11-19T23:37:47;9.77;;;1.95;;
23242;SDS011;11790;49.578;11.214;2023-11-19T23:42:47;14.02;;;2.55;;
23242;SDS011;11790;49.578;11.214;2023-11-19T23:47:48;14.65;;;2.15;;
23242;SDS011;11790;49.578;11.214;2023-11-19T23:52:48;14.07;;;2.22;;
23242;SDS011;11790;49.578;11.214;2023-11-19T23:57:48;17.20;;;2.50;;
